sensor_id;sensor_type;location;lat;lon;timestamp;P1;durP1;ratioP1;P2;durP2;ratioP2
5622;SDS011;2833;50.432;10.706;2023-06-19T00:00:47;11.93;;;9.20;;
5622;SDS011;2833;50.432;10.706;2023-06-19T00:03:12;11.80;;;9.43;;
5622;SDS011;2833;50.432;10.706;2023-06-19T00:05:37;11.87;;;10.10;;
5622;SDS011;2833;50.432;10.706;2023-06-19T00:08:03;13.73;;;9.80;;
5622;SDS011;2833;50.432;10.706;2023-06-19T00:10:30;11.07;;;9.30;;
5622;SDS011;2833;50.432;10.706;2023-06-19T00:12:55;14.40;;;10.47;;
5622;SDS011;2833;50.432;10.706;2023-06-19T00:15:20;12.87;;;9.50;;
5622;SDS011;2833;50.432;10.706;2023-06-19T00:17:46;16.90;;;10.33;;
5622;SDS011;2833;50.432;10.706;2023-06-19T00:20:11;12.13;;;9.63;;
5622;SDS011;2833;50.432;10.706;2023-06-19T00:22:38;12.37;;;9.60;;
5622;SDS011;2833;50.432;10.706;2023-06-19T00:25:03;14.17;;;10.30;;
5622;SDS011;2833;50.432;10.706;2023-06-19T00:27:29;12.43;;;9.90;;
5622;SDS011;2833;50.432;10.706;2023-06-19T00:29:54;11.63;;;9.33;;
5622;SDS011;2833;50.432;10.706;2023-06-19T00:32:22;12.00;;;9.07;;
5622;SDS011;2833;50.432;10.706;2023-06-19T00:34:47;12.87;;;9.23;;
5622;SDS011;2833;50.432;10.706;2023-06-19T00:37:13;13.40;;;10.20;;
5622;SDS011;2833;50.432;10.706;2023-06-19T00:39:39;11.77;;;9.27;;
5622;SDS011;2833;50.432;10.706;2023-06-19T00:42:05;13.83;;;10.03;;
5622;SDS011;2833;50.432;10.706;2023-06-19T00:44:30;13.13;;;9.60;;
5622;SDS011;2833;50.432;10.706;2023-06-19T00:46:56;13.33;;;9.80;;
5622;SDS011;2833;50.432;10.706;2023-06-19T00:49:22;11.50;;;9.37;;
5622;SDS011;2833;50.432;10.706;2023-06-19T00:51:47;12.80;;;9.50;;
5622;SDS011;2833;50.432;10.706;2023-06-19T00:54:12;13.63;;;10.33;;
5622;SDS011;2833;50.432;10.706;2023-06-19T00:56:38;12.00;;;10.10;;
5622;SDS011;2833;50.432;10.706;2023-06-19T00:59:11;14.67;;;10.40;;
5622;SDS011;2833;50.432;10.706;2023-06-19T01:01:38;14.10;;;10.73;;
5622;SDS011;2833;50.432;10.706;2023-06-19T01:04:03;12.50;;;10.00;;
5622;SDS011;2833;50.432;10.706;2023-06-19T01:06:30;13.40;;;10.70;;
5622;SDS011;2833;50.432;10.706;2023-06-19T01:09:04;12.03;;;9.93;;
5622;SDS011;2833;50.432;10.706;2023-06-19T01:11:34;12.70;;;10.20;;
5622;SDS011;2833;50.432;10.706;2023-06-19T01:14:03;12.73;;;9.70;;
5622;SDS011;2833;50.432;10.706;2023-06-19T01:16:30;12.63;;;9.00;;
5622;SDS011;2833;50.432;10.706;2023-06-19T01:18:55;13.40;;;9.50;;
5622;SDS011;2833;50.432;10.706;2023-06-19T01:21:20;12.63;;;9.57;;
5622;SDS011;2833;50.432;10.706;2023-06-19T01:23:46;13.90;;;9.33;;
5622;SDS011;2833;50.432;10.706;2023-06-19T01:26:12;11.63;;;9.53;;
5622;SDS011;2833;50.432;10.706;2023-06-19T01:28:38;16.13;;;10.10;;
5622;SDS011;2833;50.432;10.706;2023-06-19T01:31:06;12.53;;;9.40;;
5622;SDS011;2833;50.432;10.706;2023-06-19T01:33:33;14.20;;;11.07;;
5622;SDS011;2833;50.432;10.706;2023-06-19T01:36:00;14.27;;;10.70;;
5622;SDS011;2833;50.432;10.706;2023-06-19T01:38:26;13.10;;;9.87;;
5622;SDS011;2833;50.432;10.706;2023-06-19T01:40:52;11.90;;;9.43;;
5622;SDS011;2833;50.432;10.706;2023-06-19T01:43:19;16.00;;;10.90;;
5622;SDS011;2833;50.432;10.706;2023-06-19T01:45:44;13.20;;;9.93;;
5622;SDS011;2833;50.432;10.706;2023-06-19T01:48:09;12.83;;;10.30;;
5622;SDS011;2833;50.432;10.706;2023-06-19T01:50:35;13.37;;;10.43;;
5622;SDS011;2833;50.432;10.706;2023-06-19T01:53:00;12.87;;;10.33;;
5622;SDS011;2833;50.432;10.706;2023-06-19T01:55:25;11.60;;;9.90;;
5622;SDS011;2833;50.432;10.706;2023-06-19T01:57:51;12.80;;;10.47;;
5622;SDS011;2833;50.432;10.706;2023-06-19T02:00:16;13.73;;;10.77;;
5622;SDS011;2833;50.432;10.706;2023-06-19T02:02:42;15.53;;;10.97;;
5622;SDS011;2833;50.432;10.706;2023-06-19T02:05:07;31.87;;;19.90;;
5622;SDS011;2833;50.432;10.706;2023-06-19T02:07:32;64.17;;;37.60;;
5622;SDS011;2833;50.432;10.706;2023-06-19T02:09:57;60.40;;;34.37;;
5622;SDS011;2833;50.432;10.706;2023-06-19T02:12:23;44.17;;;28.70;;
5622;SDS011;2833;50.432;10.706;2023-06-19T02:14:48;26.27;;;17.10;;
5622;SDS011;2833;50.432;10.706;2023-06-19T02:17:13;15.27;;;11.73;;
5622;SDS011;2833;50.432;10.706;2023-06-19T02:19:39;23.70;;;15.53;;
5622;SDS011;2833;50.432;10.706;2023-06-19T02:22:04;26.90;;;16.43;;
5622;SDS011;2833;50.432;10.706;2023-06-19T02:24:30;29.37;;;16.53;;
5622;SDS011;2833;50.432;10.706;2023-06-19T02:26:55;12.93;;;10.80;;
5622;SDS011;2833;50.432;10.706;2023-06-19T02:29:20;15.30;;;11.73;;
5622;SDS011;2833;50.432;10.706;2023-06-19T02:31:46;23.80;;;13.77;;
5622;SDS011;2833;50.432;10.706;2023-06-19T02:34:11;21.27;;;14.37;;
5622;SDS011;2833;50.432;10.706;2023-06-19T02:36:37;18.30;;;12.77;;
5622;SDS011;2833;50.432;10.706;2023-06-19T02:39:04;14.30;;;11.40;;
5622;SDS011;2833;50.432;10.706;2023-06-19T02:41:29;16.97;;;12.27;;
5622;SDS011;2833;50.432;10.706;2023-06-19T02:43:54;16.93;;;13.03;;
5622;SDS011;2833;50.432;10.706;2023-06-19T02:46:19;20.70;;;14.23;;
5622;SDS011;2833;50.432;10.706;2023-06-19T02:48:45;21.40;;;14.00;;
5622;SDS011;2833;50.432;10.706;2023-06-19T02:51:10;18.83;;;12.27;;
5622;SDS011;2833;50.432;10.706;2023-06-19T02:53:35;14.37;;;11.50;;
5622;SDS011;2833;50.432;10.706;2023-06-19T02:56:00;14.83;;;10.77;;
5622;SDS011;2833;50.432;10.706;2023-06-19T02:58:25;20.70;;;11.90;;
5622;SDS011;2833;50.432;10.706;2023-06-19T03:00:52;18.20;;;11.13;;
5622;SDS011;2833;50.432;10.706;2023-06-19T03:03:17;21.57;;;13.00;;
5622;SDS011;2833;50.432;10.706;2023-06-19T03:05:42;24.47;;;14.63;;
5622;SDS011;2833;50.432;10.706;2023-06-19T03:08:07;21.63;;;12.60;;
5622;SDS011;2833;50.432;10.706;2023-06-19T03:10:32;23.47;;;12.47;;
5622;SDS011;2833;50.432;10.706;2023-06-19T03:12:58;20.73;;;13.10;;
5622;SDS011;2833;50.432;10.706;2023-06-19T03:15:24;19.47;;;12.70;;
5622;SDS011;2833;50.432;10.706;2023-06-19T03:17:49;16.87;;;11.40;;
5622;SDS011;2833;50.432;10.706;2023-06-19T03:20:14;22.43;;;13.90;;
5622;SDS011;2833;50.432;10.706;2023-06-19T03:22:40;17.33;;;12.53;;
5622;SDS011;2833;50.432;10.706;2023-06-19T03:25:05;24.00;;;13.63;;
5622;SDS011;2833;50.432;10.706;2023-06-19T03:27:31;17.77;;;11.73;;
5622;SDS011;2833;50.432;10.706;2023-06-19T03:29:56;14.17;;;10.80;;
5622;SDS011;2833;50.432;10.706;2023-06-19T03:32:21;15.90;;;11.60;;
5622;SDS011;2833;50.432;10.706;2023-06-19T03:34:46;14.07;;;10.83;;
5622;SDS011;2833;50.432;10.706;2023-06-19T03:37:13;15.90;;;11.57;;
5622;SDS011;2833;50.432;10.706;2023-06-19T03:39:38;15.37;;;11.30;;
5622;SDS011;2833;50.432;10.706;2023-06-19T03:42:03;15.10;;;10.10;;
5622;SDS011;2833;50.432;10.706;2023-06-19T03:44:28;18.53;;;11.40;;
5622;SDS011;2833;50.432;10.706;2023-06-19T03:46:54;18.33;;;12.60;;
5622;SDS011;2833;50.432;10.706;2023-06-19T03:49:19;14.93;;;10.77;;
5622;SDS011;2833;50.432;10.706;2023-06-19T03:51:44;14.97;;;11.03;;
5622;SDS011;2833;50.432;10.706;2023-06-19T03:54:09;15.47;;;10.33;;
5622;SDS011;2833;50.432;10.706;2023-06-19T03:56:35;13.57;;;10.30;;
5622;SDS011;2833;50.432;10.706;2023-06-19T03:59:00;18.70;;;10.63;;
5622;SDS011;2833;50.432;10.706;2023-06-19T04:01:25;14.10;;;10.30;;
5622;SDS011;2833;50.432;10.706;2023-06-19T04:03:50;12.23;;;9.97;;
5622;SDS011;2833;50.432;10.706;2023-06-19T04:06:15;11.63;;;9.30;;
5622;SDS011;2833;50.432;10.706;2023-06-19T04:08:40;12.00;;;9.73;;
5622;SDS011;2833;50.432;10.706;2023-06-19T04:11:06;13.33;;;10.40;;
5622;SDS011;2833;50.432;10.706;2023-06-19T04:13:31;14.50;;;10.27;;
5622;SDS011;2833;50.432;10.706;2023-06-19T04:15:56;13.63;;;9.70;;
5622;SDS011;2833;50.432;10.706;2023-06-19T04:18:22;12.13;;;8.80;;
5622;SDS011;2833;50.432;10.706;2023-06-19T04:20:47;15.20;;;9.43;;
5622;SDS011;2833;50.432;10.706;2023-06-19T04:23:12;11.03;;;8.90;;
5622;SDS011;2833;50.432;10.706;2023-06-19T04:25:37;13.10;;;9.87;;
5622;SDS011;2833;50.432;10.706;2023-06-19T04:28:03;15.33;;;9.47;;
5622;SDS011;2833;50.432;10.706;2023-06-19T04:30:28;13.50;;;9.70;;
5622;SDS011;2833;50.432;10.706;2023-06-19T04:32:54;11.07;;;8.67;;
5622;SDS011;2833;50.432;10.706;2023-06-19T04:35:19;11.60;;;9.10;;
5622;SDS011;2833;50.432;10.706;2023-06-19T04:37:44;11.57;;;9.20;;
5622;SDS011;2833;50.432;10.706;2023-06-19T04:40:10;11.60;;;8.83;;
5622;SDS011;2833;50.432;10.706;2023-06-19T04:42:36;11.60;;;9.50;;
5622;SDS011;2833;50.432;10.706;2023-06-19T04:45:03;11.40;;;9.47;;
5622;SDS011;2833;50.432;10.706;2023-06-19T04:47:32;12.27;;;8.97;;
5622;SDS011;2833;50.432;10.706;2023-06-19T04:49:57;15.00;;;10.20;;
5622;SDS011;2833;50.432;10.706;2023-06-19T04:52:22;13.47;;;9.93;;
5622;SDS011;2833;50.432;10.706;2023-06-19T04:54:48;11.93;;;9.00;;
5622;SDS011;2833;50.432;10.706;2023-06-19T04:57:13;12.73;;;9.93;;
5622;SDS011;2833;50.432;10.706;2023-06-19T04:59:38;12.50;;;9.30;;
5622;SDS011;2833;50.432;10.706;2023-06-19T05:02:03;11.50;;;9.57;;
5622;SDS011;2833;50.432;10.706;2023-06-19T05:04:29;12.40;;;9.83;;
5622;SDS011;2833;50.432;10.706;2023-06-19T05:06:57;14.90;;;10.70;;
5622;SDS011;2833;50.432;10.706;2023-06-19T05:09:23;11.07;;;9.13;;
5622;SDS011;2833;50.432;10.706;2023-06-19T05:11:48;13.93;;;10.30;;
5622;SDS011;2833;50.432;10.706;2023-06-19T05:14:13;12.30;;;9.10;;
5622;SDS011;2833;50.432;10.706;2023-06-19T05:16:39;13.13;;;9.13;;
5622;SDS011;2833;50.432;10.706;2023-06-19T05:19:04;13.73;;;9.30;;
5622;SDS011;2833;50.432;10.706;2023-06-19T05:21:30;11.13;;;9.50;;
5622;SDS011;2833;50.432;10.706;2023-06-19T05:23:55;12.27;;;9.30;;
5622;SDS011;2833;50.432;10.706;2023-06-19T05:26:20;18.03;;;9.73;;
5622;SDS011;2833;50.432;10.706;2023-06-19T05:28:47;12.40;;;9.70;;
5622;SDS011;2833;50.432;10.706;2023-06-19T05:31:12;10.40;;;9.27;;
5622;SDS011;2833;50.432;10.706;2023-06-19T05:33:37;13.43;;;9.30;;
5622;SDS011;2833;50.432;10.706;2023-06-19T05:36:02;11.83;;;9.40;;
5622;SDS011;2833;50.432;10.706;2023-06-19T05:38:28;12.27;;;10.00;;
5622;SDS011;2833;50.432;10.706;2023-06-19T05:40:55;11.53;;;9.10;;
5622;SDS011;2833;50.432;10.706;2023-06-19T05:43:20;11.83;;;9.23;;
5622;SDS011;2833;50.432;10.706;2023-06-19T05:45:46;11.57;;;9.30;;
5622;SDS011;2833;50.432;10.706;2023-06-19T05:48:12;14.77;;;9.80;;
5622;SDS011;2833;50.432;10.706;2023-06-19T05:50:37;10.53;;;8.90;;
5622;SDS011;2833;50.432;10.706;2023-06-19T05:53:02;18.47;;;10.97;;
5622;SDS011;2833;50.432;10.706;2023-06-19T05:55:27;11.50;;;9.23;;
5622;SDS011;2833;50.432;10.706;2023-06-19T05:57:53;12.93;;;9.03;;
5622;SDS011;2833;50.432;10.706;2023-06-19T06:00:18;14.77;;;9.63;;
5622;SDS011;2833;50.432;10.706;2023-06-19T06:02:44;12.17;;;9.33;;
5622;SDS011;2833;50.432;10.706;2023-06-19T06:05:09;11.77;;;9.03;;
5622;SDS011;2833;50.432;10.706;2023-06-19T06:07:34;15.40;;;9.23;;
5622;SDS011;2833;50.432;10.706;2023-06-19T06:10:00;11.70;;;9.37;;
5622;SDS011;2833;50.432;10.706;2023-06-19T06:12:25;11.63;;;9.53;;
5622;SDS011;2833;50.432;10.706;2023-06-19T06:14:51;13.70;;;9.40;;
5622;SDS011;2833;50.432;10.706;2023-06-19T06:17:16;10.63;;;8.80;;
5622;SDS011;2833;50.432;10.706;2023-06-19T06:19:41;12.87;;;9.00;;
5622;SDS011;2833;50.432;10.706;2023-06-19T06:22:06;9.60;;;8.60;;
5622;SDS011;2833;50.432;10.706;2023-06-19T06:24:32;11.70;;;9.50;;
5622;SDS011;2833;50.432;10.706;2023-06-19T06:26:57;9.97;;;8.87;;
5622;SDS011;2833;50.432;10.706;2023-06-19T06:29:23;12.63;;;9.60;;
5622;SDS011;2833;50.432;10.706;2023-06-19T06:31:49;12.27;;;9.27;;
5622;SDS011;2833;50.432;10.706;2023-06-19T06:34:14;10.90;;;8.60;;
5622;SDS011;2833;50.432;10.706;2023-06-19T06:36:39;11.27;;;9.17;;
5622;SDS011;2833;50.432;10.706;2023-06-19T06:39:04;11.30;;;9.43;;
5622;SDS011;2833;50.432;10.706;2023-06-19T06:41:31;14.13;;;10.00;;
5622;SDS011;2833;50.432;10.706;2023-06-19T06:43:56;12.80;;;9.93;;
5622;SDS011;2833;50.432;10.706;2023-06-19T06:46:21;12.47;;;9.20;;
5622;SDS011;2833;50.432;10.706;2023-06-19T06:48:46;13.77;;;9.83;;
5622;SDS011;2833;50.432;10.706;2023-06-19T06:51:12;14.47;;;10.30;;
5622;SDS011;2833;50.432;10.706;2023-06-19T06:53:37;13.20;;;9.30;;
5622;SDS011;2833;50.432;10.706;2023-06-19T06:56:02;13.70;;;10.20;;
5622;SDS011;2833;50.432;10.706;2023-06-19T06:58:28;13.47;;;9.90;;
5622;SDS011;2833;50.432;10.706;2023-06-19T07:00:53;11.20;;;9.10;;
5622;SDS011;2833;50.432;10.706;2023-06-19T07:03:19;11.70;;;9.10;;
5622;SDS011;2833;50.432;10.706;2023-06-19T07:05:44;13.67;;;9.80;;
5622;SDS011;2833;50.432;10.706;2023-06-19T07:08:09;12.60;;;9.90;;
5622;SDS011;2833;50.432;10.706;2023-06-19T07:10:35;12.07;;;9.87;;
5622;SDS011;2833;50.432;10.706;2023-06-19T07:13:00;12.40;;;9.10;;
5622;SDS011;2833;50.432;10.706;2023-06-19T07:15:25;11.90;;;9.40;;
5622;SDS011;2833;50.432;10.706;2023-06-19T07:17:50;16.43;;;9.93;;
5622;SDS011;2833;50.432;10.706;2023-06-19T07:20:15;12.07;;;9.70;;
5622;SDS011;2833;50.432;10.706;2023-06-19T07:22:41;11.10;;;9.00;;
5622;SDS011;2833;50.432;10.706;2023-06-19T07:25:06;13.10;;;9.80;;
5622;SDS011;2833;50.432;10.706;2023-06-19T07:27:32;12.83;;;8.00;;
5622;SDS011;2833;50.432;10.706;2023-06-19T07:29:57;13.53;;;9.87;;
5622;SDS011;2833;50.432;10.706;2023-06-19T07:32:22;14.83;;;10.43;;
5622;SDS011;2833;50.432;10.706;2023-06-19T07:34:48;14.00;;;9.00;;
5622;SDS011;2833;50.432;10.706;2023-06-19T07:37:13;14.13;;;10.43;;
5622;SDS011;2833;50.432;10.706;2023-06-19T07:39:45;12.40;;;9.90;;
5622;SDS011;2833;50.432;10.706;2023-06-19T07:42:11;13.17;;;9.40;;
5622;SDS011;2833;50.432;10.706;2023-06-19T07:44:36;10.80;;;9.10;;
5622;SDS011;2833;50.432;10.706;2023-06-19T07:47:01;12.87;;;8.60;;
5622;SDS011;2833;50.432;10.706;2023-06-19T07:49:26;12.97;;;10.40;;
5622;SDS011;2833;50.432;10.706;2023-06-19T07:51:52;11.63;;;10.07;;
5622;SDS011;2833;50.432;10.706;2023-06-19T07:54:17;10.50;;;9.20;;
5622;SDS011;2833;50.432;10.706;2023-06-19T07:56:42;12.90;;;10.33;;
5622;SDS011;2833;50.432;10.706;2023-06-19T07:59:07;13.93;;;10.30;;
5622;SDS011;2833;50.432;10.706;2023-06-19T08:01:33;11.07;;;8.90;;
5622;SDS011;2833;50.432;10.706;2023-06-19T08:03:58;11.57;;;8.93;;
5622;SDS011;2833;50.432;10.706;2023-06-19T08:06:25;10.73;;;8.57;;
5622;SDS011;2833;50.432;10.706;2023-06-19T08:08:50;13.50;;;9.00;;
5622;SDS011;2833;50.432;10.706;2023-06-19T08:11:16;10.93;;;8.63;;
5622;SDS011;2833;50.432;10.706;2023-06-19T08:13:41;10.97;;;9.03;;
5622;SDS011;2833;50.432;10.706;2023-06-19T08:16:07;19.80;;;9.17;;
5622;SDS011;2833;50.432;10.706;2023-06-19T08:18:32;13.00;;;8.80;;
5622;SDS011;2833;50.432;10.706;2023-06-19T08:20:57;11.10;;;8.87;;
5622;SDS011;2833;50.432;10.706;2023-06-19T08:23:22;11.90;;;9.30;;
5622;SDS011;2833;50.432;10.706;2023-06-19T08:25:47;8.70;;;7.37;;
5622;SDS011;2833;50.432;10.706;2023-06-19T08:28:12;11.27;;;6.40;;
5622;SDS011;2833;50.432;10.706;2023-06-19T08:30:38;11.30;;;7.80;;
5622;SDS011;2833;50.432;10.706;2023-06-19T08:33:03;12.10;;;7.63;;
5622;SDS011;2833;50.432;10.706;2023-06-19T08:35:28;11.00;;;7.33;;
5622;SDS011;2833;50.432;10.706;2023-06-19T08:37:53;7.93;;;6.47;;
5622;SDS011;2833;50.432;10.706;2023-06-19T08:40:19;10.13;;;7.33;;
5622;SDS011;2833;50.432;10.706;2023-06-19T08:42:45;9.93;;;7.77;;
5622;SDS011;2833;50.432;10.706;2023-06-19T08:45:10;9.83;;;6.90;;
5622;SDS011;2833;50.432;10.706;2023-06-19T08:47:35;10.60;;;8.03;;
5622;SDS011;2833;50.432;10.706;2023-06-19T08:50:01;7.37;;;6.40;;
5622;SDS011;2833;50.432;10.706;2023-06-19T08:52:26;8.40;;;6.57;;
5622;SDS011;2833;50.432;10.706;2023-06-19T08:54:51;7.77;;;6.60;;
5622;SDS011;2833;50.432;10.706;2023-06-19T08:57:17;9.40;;;8.27;;
5622;SDS011;2833;50.432;10.706;2023-06-19T08:59:51;8.10;;;6.97;;
5622;SDS011;2833;50.432;10.706;2023-06-19T09:02:16;10.70;;;7.10;;
5622;SDS011;2833;50.432;10.706;2023-06-19T09:04:42;8.70;;;7.10;;
5622;SDS011;2833;50.432;10.706;2023-06-19T09:07:07;8.97;;;7.57;;
5622;SDS011;2833;50.432;10.706;2023-06-19T09:09:33;9.90;;;6.70;;
5622;SDS011;2833;50.432;10.706;2023-06-19T09:12:05;10.47;;;7.33;;
5622;SDS011;2833;50.432;10.706;2023-06-19T09:14:40;7.73;;;6.57;;
5622;SDS011;2833;50.432;10.706;2023-06-19T09:17:07;8.37;;;6.90;;
5622;SDS011;2833;50.432;10.706;2023-06-19T09:19:32;9.53;;;7.10;;
5622;SDS011;2833;50.432;10.706;2023-06-19T09:22:06;9.63;;;7.90;;
5622;SDS011;2833;50.432;10.706;2023-06-19T09:24:33;9.23;;;7.80;;
5622;SDS011;2833;50.432;10.706;2023-06-19T09:27:32;10.57;;;7.50;;
5622;SDS011;2833;50.432;10.706;2023-06-19T09:29:50;7.53;;;6.70;;
5622;SDS011;2833;50.432;10.706;2023-06-19T09:32:16;9.33;;;6.70;;
5622;SDS011;2833;50.432;10.706;2023-06-19T09:34:41;8.17;;;7.20;;
5622;SDS011;2833;50.432;10.706;2023-06-19T09:37:07;10.43;;;7.30;;
5622;SDS011;2833;50.432;10.706;2023-06-19T09:39:32;8.20;;;6.87;;
5622;SDS011;2833;50.432;10.706;2023-06-19T09:41:59;11.03;;;7.13;;
5622;SDS011;2833;50.432;10.706;2023-06-19T09:44:25;9.07;;;7.20;;
5622;SDS011;2833;50.432;10.706;2023-06-19T09:46:52;10.57;;;7.70;;
5622;SDS011;2833;50.432;10.706;2023-06-19T09:49:17;7.70;;;6.83;;
5622;SDS011;2833;50.432;10.706;2023-06-19T09:51:43;9.10;;;7.00;;
5622;SDS011;2833;50.432;10.706;2023-06-19T09:54:09;7.87;;;6.30;;
5622;SDS011;2833;50.432;10.706;2023-06-19T09:56:34;8.00;;;6.00;;
5622;SDS011;2833;50.432;10.706;2023-06-19T09:59:00;10.10;;;7.90;;
5622;SDS011;2833;50.432;10.706;2023-06-19T10:01:27;8.47;;;6.37;;
5622;SDS011;2833;50.432;10.706;2023-06-19T10:06:47;9.50;;;7.10;;
5622;SDS011;2833;50.432;10.706;2023-06-19T10:09:14;8.33;;;6.43;;
5622;SDS011;2833;50.432;10.706;2023-06-19T10:11:51;9.00;;;6.77;;
5622;SDS011;2833;50.432;10.706;2023-06-19T10:14:17;10.80;;;6.20;;
5622;SDS011;2833;50.432;10.706;2023-06-19T10:16:43;7.77;;;6.60;;
5622;SDS011;2833;50.432;10.706;2023-06-19T10:19:15;12.13;;;7.40;;
5622;SDS011;2833;50.432;10.706;2023-06-19T10:21:45;8.00;;;6.57;;
5622;SDS011;2833;50.432;10.706;2023-06-19T10:24:13;7.53;;;6.10;;
5622;SDS011;2833;50.432;10.706;2023-06-19T10:26:38;7.43;;;6.67;;
5622;SDS011;2833;50.432;10.706;2023-06-19T10:29:13;5.87;;;5.23;;
5622;SDS011;2833;50.432;10.706;2023-06-19T10:31:38;7.60;;;6.80;;
5622;SDS011;2833;50.432;10.706;2023-06-19T10:34:03;6.47;;;5.20;;
5622;SDS011;2833;50.432;10.706;2023-06-19T10:36:29;7.73;;;6.20;;
5622;SDS011;2833;50.432;10.706;2023-06-19T10:38:55;11.53;;;5.70;;
5622;SDS011;2833;50.432;10.706;2023-06-19T10:41:21;6.20;;;5.60;;
5622;SDS011;2833;50.432;10.706;2023-06-19T10:43:57;5.77;;;4.10;;
5622;SDS011;2833;50.432;10.706;2023-06-19T10:46:23;5.90;;;5.30;;
5622;SDS011;2833;50.432;10.706;2023-06-19T10:48:49;6.37;;;5.70;;
5622;SDS011;2833;50.432;10.706;2023-06-19T10:51:18;6.97;;;6.27;;
5622;SDS011;2833;50.432;10.706;2023-06-19T10:53:43;7.47;;;5.73;;
5622;SDS011;2833;50.432;10.706;2023-06-19T10:56:09;7.27;;;6.30;;
5622;SDS011;2833;50.432;10.706;2023-06-19T10:58:34;7.47;;;6.13;;
5622;SDS011;2833;50.432;10.706;2023-06-19T11:00:59;12.10;;;6.37;;
5622;SDS011;2833;50.432;10.706;2023-06-19T11:03:24;9.10;;;5.80;;
5622;SDS011;2833;50.432;10.706;2023-06-19T11:05:49;8.80;;;6.60;;
5622;SDS011;2833;50.432;10.706;2023-06-19T11:08:18;16.40;;;6.60;;
5622;SDS011;2833;50.432;10.706;2023-06-19T11:10:44;34.73;;;9.77;;
5622;SDS011;2833;50.432;10.706;2023-06-19T11:13:13;91.37;;;10.90;;
5622;SDS011;2833;50.432;10.706;2023-06-19T11:15:38;32.93;;;10.90;;
5622;SDS011;2833;50.432;10.706;2023-06-19T11:18:03;59.27;;;10.93;;
5622;SDS011;2833;50.432;10.706;2023-06-19T11:20:29;27.23;;;8.50;;
5622;SDS011;2833;50.432;10.706;2023-06-19T11:22:57;18.00;;;8.60;;
5622;SDS011;2833;50.432;10.706;2023-06-19T11:25:22;37.40;;;8.70;;
5622;SDS011;2833;50.432;10.706;2023-06-19T11:27:48;28.73;;;8.07;;
5622;SDS011;2833;50.432;10.706;2023-06-19T11:30:17;14.70;;;8.40;;
5622;SDS011;2833;50.432;10.706;2023-06-19T11:32:42;16.70;;;8.70;;
5622;SDS011;2833;50.432;10.706;2023-06-19T11:35:10;55.40;;;10.47;;
5622;SDS011;2833;50.432;10.706;2023-06-19T11:37:36;10.63;;;7.50;;
5622;SDS011;2833;50.432;10.706;2023-06-19T11:40:02;11.70;;;7.13;;
5622;SDS011;2833;50.432;10.706;2023-06-19T11:42:43;16.67;;;8.17;;
5622;SDS011;2833;50.432;10.706;2023-06-19T11:45:09;13.83;;;8.07;;
5622;SDS011;2833;50.432;10.706;2023-06-19T11:47:34;62.70;;;11.60;;
5622;SDS011;2833;50.432;10.706;2023-06-19T11:50:03;18.40;;;8.47;;
5622;SDS011;2833;50.432;10.706;2023-06-19T11:52:28;45.67;;;11.63;;
5622;SDS011;2833;50.432;10.706;2023-06-19T11:54:53;44.87;;;10.10;;
5622;SDS011;2833;50.432;10.706;2023-06-19T11:57:19;57.83;;;14.50;;
5622;SDS011;2833;50.432;10.706;2023-06-19T11:59:44;13.30;;;8.77;;
5622;SDS011;2833;50.432;10.706;2023-06-19T12:02:09;32.47;;;9.83;;
5622;SDS011;2833;50.432;10.706;2023-06-19T12:04:34;50.97;;;10.37;;
5622;SDS011;2833;50.432;10.706;2023-06-19T12:07:01;26.13;;;9.50;;
5622;SDS011;2833;50.432;10.706;2023-06-19T12:09:27;14.10;;;8.63;;
5622;SDS011;2833;50.432;10.706;2023-06-19T12:11:53;11.70;;;8.70;;
5622;SDS011;2833;50.432;10.706;2023-06-19T12:14:18;10.30;;;7.53;;
5622;SDS011;2833;50.432;10.706;2023-06-19T12:16:47;11.57;;;8.77;;
5622;SDS011;2833;50.432;10.706;2023-06-19T12:19:12;14.60;;;8.80;;
5622;SDS011;2833;50.432;10.706;2023-06-19T12:21:38;11.70;;;7.80;;
5622;SDS011;2833;50.432;10.706;2023-06-19T12:24:03;14.33;;;8.37;;
5622;SDS011;2833;50.432;10.706;2023-06-19T12:26:28;12.40;;;8.30;;
5622;SDS011;2833;50.432;10.706;2023-06-19T12:28:53;14.13;;;8.00;;
5622;SDS011;2833;50.432;10.706;2023-06-19T12:31:18;28.93;;;9.47;;
5622;SDS011;2833;50.432;10.706;2023-06-19T12:33:44;47.17;;;9.77;;
5622;SDS011;2833;50.432;10.706;2023-06-19T12:36:12;44.47;;;10.63;;
5622;SDS011;2833;50.432;10.706;2023-06-19T12:38:38;38.57;;;10.50;;
5622;SDS011;2833;50.432;10.706;2023-06-19T12:41:04;39.53;;;10.30;;
5622;SDS011;2833;50.432;10.706;2023-06-19T12:43:29;26.60;;;9.77;;
5622;SDS011;2833;50.432;10.706;2023-06-19T12:45:56;18.23;;;8.17;;
5622;SDS011;2833;50.432;10.706;2023-06-19T12:48:22;11.00;;;8.17;;
5622;SDS011;2833;50.432;10.706;2023-06-19T12:50:47;10.00;;;8.40;;
5622;SDS011;2833;50.432;10.706;2023-06-19T12:53:12;17.67;;;7.63;;
5622;SDS011;2833;50.432;10.706;2023-06-19T12:55:37;20.50;;;8.70;;
5622;SDS011;2833;50.432;10.706;2023-06-19T12:58:02;11.30;;;8.27;;
5622;SDS011;2833;50.432;10.706;2023-06-19T13:00:27;13.07;;;8.50;;
5622;SDS011;2833;50.432;10.706;2023-06-19T13:02:53;23.93;;;9.10;;
5622;SDS011;2833;50.432;10.706;2023-06-19T13:05:18;21.60;;;8.33;;
5622;SDS011;2833;50.432;10.706;2023-06-19T13:07:43;14.60;;;9.03;;
5622;SDS011;2833;50.432;10.706;2023-06-19T13:10:09;15.17;;;9.33;;
5622;SDS011;2833;50.432;10.706;2023-06-19T13:12:34;12.23;;;7.80;;
5622;SDS011;2833;50.432;10.706;2023-06-19T13:14:59;44.00;;;12.37;;
5622;SDS011;2833;50.432;10.706;2023-06-19T13:17:25;18.93;;;9.60;;
5622;SDS011;2833;50.432;10.706;2023-06-19T13:19:50;36.40;;;10.80;;
5622;SDS011;2833;50.432;10.706;2023-06-19T13:22:15;49.40;;;11.50;;
5622;SDS011;2833;50.432;10.706;2023-06-19T13:24:40;64.13;;;12.57;;
5622;SDS011;2833;50.432;10.706;2023-06-19T13:27:05;74.27;;;10.70;;
5622;SDS011;2833;50.432;10.706;2023-06-19T13:29:31;55.60;;;10.43;;
5622;SDS011;2833;50.432;10.706;2023-06-19T13:31:56;26.83;;;11.80;;
5622;SDS011;2833;50.432;10.706;2023-06-19T13:34:21;30.03;;;11.17;;
5622;SDS011;2833;50.432;10.706;2023-06-19T13:36:47;13.87;;;8.53;;
5622;SDS011;2833;50.432;10.706;2023-06-19T13:39:13;45.13;;;10.00;;
5622;SDS011;2833;50.432;10.706;2023-06-19T13:41:38;36.17;;;10.10;;
5622;SDS011;2833;50.432;10.706;2023-06-19T13:44:03;33.33;;;10.03;;
5622;SDS011;2833;50.432;10.706;2023-06-19T13:46:29;21.13;;;9.50;;
5622;SDS011;2833;50.432;10.706;2023-06-19T13:48:56;39.20;;;10.53;;
5622;SDS011;2833;50.432;10.706;2023-06-19T13:51:21;36.17;;;8.23;;
5622;SDS011;2833;50.432;10.706;2023-06-19T13:53:47;16.30;;;8.13;;
5622;SDS011;2833;50.432;10.706;2023-06-19T13:56:13;18.50;;;7.67;;
5622;SDS011;2833;50.432;10.706;2023-06-19T13:58:38;29.23;;;9.37;;
5622;SDS011;2833;50.432;10.706;2023-06-19T14:01:04;34.23;;;9.10;;
5622;SDS011;2833;50.432;10.706;2023-06-19T14:03:29;17.00;;;8.10;;
5622;SDS011;2833;50.432;10.706;2023-06-19T14:05:54;17.10;;;8.63;;
5622;SDS011;2833;50.432;10.706;2023-06-19T14:08:20;26.37;;;9.53;;
5622;SDS011;2833;50.432;10.706;2023-06-19T14:10:45;16.73;;;9.47;;
5622;SDS011;2833;50.432;10.706;2023-06-19T14:13:10;15.00;;;7.97;;
5622;SDS011;2833;50.432;10.706;2023-06-19T14:15:35;19.80;;;9.17;;
5622;SDS011;2833;50.432;10.706;2023-06-19T14:18:01;22.60;;;9.93;;
5622;SDS011;2833;50.432;10.706;2023-06-19T14:20:27;18.77;;;9.03;;
5622;SDS011;2833;50.432;10.706;2023-06-19T14:22:52;24.63;;;8.30;;
5622;SDS011;2833;50.432;10.706;2023-06-19T14:25:17;22.27;;;8.60;;
5622;SDS011;2833;50.432;10.706;2023-06-19T14:27:42;14.50;;;7.47;;
5622;SDS011;2833;50.432;10.706;2023-06-19T14:30:07;18.30;;;8.80;;
5622;SDS011;2833;50.432;10.706;2023-06-19T14:32:33;17.50;;;7.57;;
5622;SDS011;2833;50.432;10.706;2023-06-19T14:34:58;22.03;;;8.40;;
5622;SDS011;2833;50.432;10.706;2023-06-19T14:37:23;14.03;;;8.07;;
5622;SDS011;2833;50.432;10.706;2023-06-19T14:39:49;12.83;;;7.97;;